sensor_id;sensor_type;location;lat;lon;timestamp;P1;durP1;ratioP1;P2;durP2;ratioP2
11034;SDS011;5571;48.110;-1.706;2022-09-09T00:00:49;21.73;;;4.23;;
11034;SDS011;5571;48.110;-1.706;2022-09-09T00:03:23;15.90;;;3.30;;
11034;SDS011;5571;48.110;-1.706;2022-09-09T00:11:41;20.53;;;3.77;;
11034;SDS011;5571;48.110;-1.706;2022-09-09T00:14:37;12.37;;;3.27;;
11034;SDS011;5571;48.110;-1.706;2022-09-09T00:17:09;20.17;;;3.63;;
11034;SDS011;5571;48.110;-1.706;2022-09-09T00:20:01;17.23;;;3.40;;
11034;SDS011;5571;48.110;-1.706;2022-09-09T00:22:36;16.23;;;3.57;;
11034;SDS011;5571;48.110;-1.706;2022-09-09T00:25:34;17.83;;;3.83;;
11034;SDS011;5571;48.110;-1.706;2022-09-09T00:28:19;25.53;;;4.37;;
11034;SDS011;5571;48.110;-1.706;2022-09-09T00:30:47;18.57;;;3.50;;
11034;SDS011;5571;48.110;-1.706;2022-09-09T00:33:13;15.10;;;3.57;;
11034;SDS011;5571;48.110;-1.706;2022-09-09T00:35:44;12.13;;;3.47;;
11034;SDS011;5571;48.110;-1.706;2022-09-09T00:38:16;16.53;;;3.97;;
11034;SDS011;5571;48.110;-1.706;2022-09-09T00:43:37;19.00;;;3.60;;
11034;SDS011;5571;48.110;-1.706;2022-09-09T00:51:28;12.07;;;3.73;;
11034;SDS011;5571;48.110;-1.706;2022-09-09T00:54:13;18.10;;;3.80;;
11034;SDS011;5571;48.110;-1.706;2022-09-09T00:57:07;14.90;;;3.33;;
11034;SDS011;5571;48.110;-1.706;2022-09-09T01:02:27;15.60;;;3.37;;
11034;SDS011;5571;48.110;-1.706;2022-09-09T01:08:00;24.40;;;3.73;;
11034;SDS011;5571;48.110;-1.706;2022-09-09T01:13:19;13.50;;;3.40;;
11034;SDS011;5571;48.110;-1.706;2022-09-09T01:15:48;16.50;;;3.30;;
11034;SDS011;5571;48.110;-1.706;2022-09-09T01:18:16;14.30;;;3.13;;
11034;SDS011;5571;48.110;-1.706;2022-09-09T01:23:21;17.07;;;3.40;;
11034;SDS011;5571;48.110;-1.706;2022-09-09T01:26:14;12.70;;;3.40;;
11034;SDS011;5571;48.110;-1.706;2022-09-09T01:28:45;16.57;;;3.70;;
11034;SDS011;5571;48.110;-1.706;2022-09-09T01:31:14;15.27;;;3.10;;
11034;SDS011;5571;48.110;-1.706;2022-09-09T01:33:42;16.50;;;3.27;;
11034;SDS011;5571;48.110;-1.706;2022-09-09T01:36:10;19.93;;;3.60;;
11034;SDS011;5571;48.110;-1.706;2022-09-09T01:38:43;12.83;;;3.07;;
11034;SDS011;5571;48.110;-1.706;2022-09-09T01:41:08;13.23;;;3.60;;
11034;SDS011;5571;48.110;-1.706;2022-09-09T01:43:33;17.53;;;3.60;;
11034;SDS011;5571;48.110;-1.706;2022-09-09T01:45:59;15.57;;;3.80;;
11034;SDS011;5571;48.110;-1.706;2022-09-09T01:48:27;16.67;;;3.60;;
11034;SDS011;5571;48.110;-1.706;2022-09-09T01:50:52;16.63;;;3.60;;
11034;SDS011;5571;48.110;-1.706;2022-09-09T01:53:18;9.40;;;2.97;;
11034;SDS011;5571;48.110;-1.706;2022-09-09T01:55:57;14.67;;;2.90;;
11034;SDS011;5571;48.110;-1.706;2022-09-09T02:02:13;15.93;;;3.67;;
11034;SDS011;5571;48.110;-1.706;2022-09-09T02:07:05;17.33;;;3.50;;
11034;SDS011;5571;48.110;-1.706;2022-09-09T02:09:39;13.40;;;3.27;;
11034;SDS011;5571;48.110;-1.706;2022-09-09T02:12:14;13.70;;;3.00;;
11034;SDS011;5571;48.110;-1.706;2022-09-09T02:14:47;12.97;;;3.07;;
11034;SDS011;5571;48.110;-1.706;2022-09-09T02:17:21;15.73;;;3.57;;
11034;SDS011;5571;48.110;-1.706;2022-09-09T02:20:05;13.13;;;3.30;;
11034;SDS011;5571;48.110;-1.706;2022-09-09T02:22:33;13.27;;;3.30;;
11034;SDS011;5571;48.110;-1.706;2022-09-09T02:25:02;15.13;;;3.03;;
11034;SDS011;5571;48.110;-1.706;2022-09-09T02:27:30;14.40;;;2.70;;
11034;SDS011;5571;48.110;-1.706;2022-09-09T02:29:56;15.23;;;3.20;;
11034;SDS011;5571;48.110;-1.706;2022-09-09T02:32:27;10.97;;;3.00;;
11034;SDS011;5571;48.110;-1.706;2022-09-09T02:34:57;16.13;;;2.93;;
11034;SDS011;5571;48.110;-1.706;2022-09-09T02:37:28;11.97;;;2.93;;
11034;SDS011;5571;48.110;-1.706;2022-09-09T02:39:58;15.93;;;2.63;;
11034;SDS011;5571;48.110;-1.706;2022-09-09T02:42:24;10.57;;;2.80;;
11034;SDS011;5571;48.110;-1.706;2022-09-09T02:44:49;16.33;;;3.30;;
11034;SDS011;5571;48.110;-1.706;2022-09-09T02:49:53;14.07;;;2.53;;
11034;SDS011;5571;48.110;-1.706;2022-09-09T02:52:26;12.57;;;2.70;;
11034;SDS011;5571;48.110;-1.706;2022-09-09T02:54:59;11.97;;;2.60;;
11034;SDS011;5571;48.110;-1.706;2022-09-09T02:57:33;9.87;;;2.70;;
11034;SDS011;5571;48.110;-1.706;2022-09-09T03:00:00;10.23;;;2.90;;
11034;SDS011;5571;48.110;-1.706;2022-09-09T03:02:26;11.60;;;2.87;;
11034;SDS011;5571;48.110;-1.706;2022-09-09T03:04:51;10.43;;;2.77;;
11034;SDS011;5571;48.110;-1.706;2022-09-09T03:07:20;11.27;;;2.70;;
11034;SDS011;5571;48.110;-1.706;2022-09-09T03:09:46;12.27;;;2.70;;
11034;SDS011;5571;48.110;-1.706;2022-09-09T03:12:12;11.30;;;2.33;;
11034;SDS011;5571;48.110;-1.706;2022-09-09T03:14:37;12.63;;;2.90;;
11034;SDS011;5571;48.110;-1.706;2022-09-09T03:17:04;11.07;;;2.37;;
11034;SDS011;5571;48.110;-1.706;2022-09-09T03:19:30;12.13;;;2.30;;
11034;SDS011;5571;48.110;-1.706;2022-09-09T03:21:56;14.43;;;2.87;;
11034;SDS011;5571;48.110;-1.706;2022-09-09T03:24:22;10.77;;;2.53;;
11034;SDS011;5571;48.110;-1.706;2022-09-09T03:26:47;12.03;;;2.93;;
11034;SDS011;5571;48.110;-1.706;2022-09-09T03:29:13;11.83;;;2.53;;
11034;SDS011;5571;48.110;-1.706;2022-09-09T03:31:39;12.37;;;2.50;;
11034;SDS011;5571;48.110;-1.706;2022-09-09T03:34:05;10.63;;;2.33;;
11034;SDS011;5571;48.110;-1.706;2022-09-09T03:36:30;9.80;;;2.67;;
11034;SDS011;5571;48.110;-1.706;2022-09-09T03:38:56;18.13;;;3.30;;
11034;SDS011;5571;48.110;-1.706;2022-09-09T03:41:23;12.33;;;2.73;;
11034;SDS011;5571;48.110;-1.706;2022-09-09T03:43:49;11.97;;;2.43;;
11034;SDS011;5571;48.110;-1.706;2022-09-09T03:46:16;8.33;;;2.20;;
11034;SDS011;5571;48.110;-1.706;2022-09-09T03:48:41;12.13;;;2.57;;
11034;SDS011;5571;48.110;-1.706;2022-09-09T03:51:06;11.43;;;2.67;;
11034;SDS011;5571;48.110;-1.706;2022-09-09T03:53:32;10.43;;;2.50;;
11034;SDS011;5571;48.110;-1.706;2022-09-09T03:55:59;12.90;;;3.00;;
11034;SDS011;5571;48.110;-1.706;2022-09-09T03:58:25;20.03;;;2.77;;
11034;SDS011;5571;48.110;-1.706;2022-09-09T04:00:59;15.50;;;2.97;;
11034;SDS011;5571;48.110;-1.706;2022-09-09T04:03:27;12.27;;;2.67;;
11034;SDS011;5571;48.110;-1.706;2022-09-09T04:05:53;12.57;;;2.70;;
11034;SDS011;5571;48.110;-1.706;2022-09-09T04:08:20;10.80;;;2.67;;
11034;SDS011;5571;48.110;-1.706;2022-09-09T04:10:49;14.97;;;2.90;;
11034;SDS011;5571;48.110;-1.706;2022-09-09T04:13:15;13.00;;;3.03;;
11034;SDS011;5571;48.110;-1.706;2022-09-09T04:15:42;16.70;;;2.83;;
11034;SDS011;5571;48.110;-1.706;2022-09-09T04:18:08;9.47;;;2.43;;
11034;SDS011;5571;48.110;-1.706;2022-09-09T04:20:34;10.20;;;2.47;;
11034;SDS011;5571;48.110;-1.706;2022-09-09T04:23:00;10.60;;;2.80;;
11034;SDS011;5571;48.110;-1.706;2022-09-09T04:25:25;15.70;;;4.10;;
11034;SDS011;5571;48.110;-1.706;2022-09-09T04:27:54;11.07;;;2.87;;
11034;SDS011;5571;48.110;-1.706;2022-09-09T04:30:20;17.73;;;2.73;;
11034;SDS011;5571;48.110;-1.706;2022-09-09T04:32:46;11.33;;;2.57;;
11034;SDS011;5571;48.110;-1.706;2022-09-09T04:35:11;13.20;;;2.80;;
11034;SDS011;5571;48.110;-1.706;2022-09-09T04:37:37;9.93;;;2.70;;
11034;SDS011;5571;48.110;-1.706;2022-09-09T04:40:02;16.23;;;2.90;;
11034;SDS011;5571;48.110;-1.706;2022-09-09T04:42:28;11.10;;;2.50;;
11034;SDS011;5571;48.110;-1.706;2022-09-09T04:44:53;10.50;;;2.33;;
11034;SDS011;5571;48.110;-1.706;2022-09-09T04:47:19;16.43;;;3.13;;
11034;SDS011;5571;48.110;-1.706;2022-09-09T04:49:44;12.23;;;2.70;;
11034;SDS011;5571;48.110;-1.706;2022-09-09T04:52:10;12.97;;;3.27;;
11034;SDS011;5571;48.110;-1.706;2022-09-09T04:54:35;10.57;;;2.87;;
11034;SDS011;5571;48.110;-1.706;2022-09-09T04:57:01;8.70;;;2.57;;
11034;SDS011;5571;48.110;-1.706;2022-09-09T04:59:27;13.90;;;3.10;;
11034;SDS011;5571;48.110;-1.706;2022-09-09T05:01:52;13.40;;;2.83;;
11034;SDS011;5571;48.110;-1.706;2022-09-09T05:04:19;14.10;;;3.37;;
11034;SDS011;5571;48.110;-1.706;2022-09-09T05:06:44;14.20;;;3.23;;
11034;SDS011;5571;48.110;-1.706;2022-09-09T05:09:10;7.83;;;2.77;;
11034;SDS011;5571;48.110;-1.706;2022-09-09T05:11:36;12.80;;;2.80;;
11034;SDS011;5571;48.110;-1.706;2022-09-09T05:14:01;9.67;;;2.40;;
11034;SDS011;5571;48.110;-1.706;2022-09-09T05:16:28;14.33;;;2.93;;
11034;SDS011;5571;48.110;-1.706;2022-09-09T05:18:53;16.93;;;2.70;;
11034;SDS011;5571;48.110;-1.706;2022-09-09T05:21:20;17.90;;;3.63;;
11034;SDS011;5571;48.110;-1.706;2022-09-09T05:23:48;14.73;;;3.00;;
11034;SDS011;5571;48.110;-1.706;2022-09-09T05:26:17;14.03;;;3.00;;
11034;SDS011;5571;48.110;-1.706;2022-09-09T05:28:44;16.47;;;3.40;;
11034;SDS011;5571;48.110;-1.706;2022-09-09T05:31:10;14.27;;;3.03;;
11034;SDS011;5571;48.110;-1.706;2022-09-09T05:33:37;14.17;;;2.70;;
11034;SDS011;5571;48.110;-1.706;2022-09-09T05:36:26;18.47;;;3.00;;
11034;SDS011;5571;48.110;-1.706;2022-09-09T05:38:51;13.57;;;3.37;;
11034;SDS011;5571;48.110;-1.706;2022-09-09T05:41:18;19.00;;;3.33;;
11034;SDS011;5571;48.110;-1.706;2022-09-09T05:43:45;17.47;;;3.77;;
11034;SDS011;5571;48.110;-1.706;2022-09-09T05:46:14;16.90;;;3.13;;
11034;SDS011;5571;48.110;-1.706;2022-09-09T05:48:45;14.30;;;3.40;;
11034;SDS011;5571;48.110;-1.706;2022-09-09T05:51:13;13.77;;;2.80;;
11034;SDS011;5571;48.110;-1.706;2022-09-09T05:53:43;9.97;;;2.87;;
11034;SDS011;5571;48.110;-1.706;2022-09-09T05:56:17;13.70;;;3.00;;
11034;SDS011;5571;48.110;-1.706;2022-09-09T05:58:44;18.83;;;3.37;;
11034;SDS011;5571;48.110;-1.706;2022-09-09T06:03:42;15.50;;;3.00;;
11034;SDS011;5571;48.110;-1.706;2022-09-09T06:06:09;14.27;;;2.93;;
11034;SDS011;5571;48.110;-1.706;2022-09-09T06:08:37;19.20;;;3.53;;
11034;SDS011;5571;48.110;-1.706;2022-09-09T06:11:05;15.70;;;3.57;;
11034;SDS011;5571;48.110;-1.706;2022-09-09T06:13:32;13.37;;;3.53;;
11034;SDS011;5571;48.110;-1.706;2022-09-09T06:15:58;14.87;;;5.23;;
11034;SDS011;5571;48.110;-1.706;2022-09-09T06:18:25;16.03;;;3.30;;
11034;SDS011;5571;48.110;-1.706;2022-09-09T06:20:57;14.60;;;3.60;;
11034;SDS011;5571;48.110;-1.706;2022-09-09T06:23:25;15.67;;;3.60;;
11034;SDS011;5571;48.110;-1.706;2022-09-09T06:26:00;10.73;;;3.07;;
11034;SDS011;5571;48.110;-1.706;2022-09-09T06:28:33;15.60;;;3.30;;
11034;SDS011;5571;48.110;-1.706;2022-09-09T06:30:59;12.77;;;3.47;;
11034;SDS011;5571;48.110;-1.706;2022-09-09T06:33:26;16.43;;;3.90;;
11034;SDS011;5571;48.110;-1.706;2022-09-09T06:35:53;13.93;;;2.93;;
11034;SDS011;5571;48.110;-1.706;2022-09-09T06:38:20;12.17;;;3.17;;
11034;SDS011;5571;48.110;-1.706;2022-09-09T06:40:51;14.07;;;3.30;;
11034;SDS011;5571;48.110;-1.706;2022-09-09T06:43:19;14.43;;;3.10;;
11034;SDS011;5571;48.110;-1.706;2022-09-09T06:45:52;16.07;;;3.13;;
11034;SDS011;5571;48.110;-1.706;2022-09-09T06:48:25;16.37;;;3.60;;
11034;SDS011;5571;48.110;-1.706;2022-09-09T06:51:13;12.00;;;3.73;;
11034;SDS011;5571;48.110;-1.706;2022-09-09T06:53:39;21.63;;;3.23;;
11034;SDS011;5571;48.110;-1.706;2022-09-09T06:58:40;18.27;;;3.13;;
11034;SDS011;5571;48.110;-1.706;2022-09-09T07:01:09;20.07;;;3.37;;
11034;SDS011;5571;48.110;-1.706;2022-09-09T07:03:37;16.73;;;3.23;;
11034;SDS011;5571;48.110;-1.706;2022-09-09T07:06:04;13.10;;;3.27;;
11034;SDS011;5571;48.110;-1.706;2022-09-09T07:08:30;14.57;;;3.10;;
11034;SDS011;5571;48.110;-1.706;2022-09-09T07:11:03;13.17;;;3.10;;
11034;SDS011;5571;48.110;-1.706;2022-09-09T07:13:30;12.53;;;3.10;;
11034;SDS011;5571;48.110;-1.706;2022-09-09T07:16:02;10.97;;;2.93;;
11034;SDS011;5571;48.110;-1.706;2022-09-09T07:18:31;15.20;;;3.43;;
11034;SDS011;5571;48.110;-1.706;2022-09-09T07:20:58;12.43;;;3.43;;
11034;SDS011;5571;48.110;-1.706;2022-09-09T07:23:24;16.03;;;3.13;;
11034;SDS011;5571;48.110;-1.706;2022-09-09T07:25:50;13.43;;;2.83;;
11034;SDS011;5571;48.110;-1.706;2022-09-09T07:28:16;9.83;;;2.60;;
11034;SDS011;5571;48.110;-1.706;2022-09-09T07:30:42;13.00;;;2.63;;
11034;SDS011;5571;48.110;-1.706;2022-09-09T07:33:08;10.90;;;2.53;;
11034;SDS011;5571;48.110;-1.706;2022-09-09T07:35:36;11.50;;;2.40;;
11034;SDS011;5571;48.110;-1.706;2022-09-09T07:38:02;10.27;;;2.67;;
11034;SDS011;5571;48.110;-1.706;2022-09-09T07:40:29;17.70;;;2.87;;
11034;SDS011;5571;48.110;-1.706;2022-09-09T07:42:55;8.87;;;2.60;;
11034;SDS011;5571;48.110;-1.706;2022-09-09T07:45:21;11.10;;;3.00;;
11034;SDS011;5571;48.110;-1.706;2022-09-09T07:47:46;8.77;;;2.67;;
11034;SDS011;5571;48.110;-1.706;2022-09-09T07:50:13;15.07;;;3.00;;
11034;SDS011;5571;48.110;-1.706;2022-09-09T07:52:38;12.07;;;3.00;;
11034;SDS011;5571;48.110;-1.706;2022-09-09T07:55:04;11.07;;;2.53;;
11034;SDS011;5571;48.110;-1.706;2022-09-09T07:57:29;12.73;;;2.93;;
11034;SDS011;5571;48.110;-1.706;2022-09-09T07:59:55;11.50;;;2.70;;
11034;SDS011;5571;48.110;-1.706;2022-09-09T08:02:21;14.60;;;3.35;;
11034;SDS011;5571;48.110;-1.706;2022-09-09T08:04:48;13.63;;;2.65;;
11034;SDS011;5571;48.110;-1.706;2022-09-09T08:07:13;13.20;;;2.60;;
11034;SDS011;5571;48.110;-1.706;2022-09-09T08:09:39;18.80;;;3.10;;
11034;SDS011;5571;48.110;-1.706;2022-09-09T08:12:04;12.13;;;2.63;;
11034;SDS011;5571;48.110;-1.706;2022-09-09T08:14:31;9.75;;;2.83;;
11034;SDS011;5571;48.110;-1.706;2022-09-09T08:16:57;10.33;;;2.97;;
11034;SDS011;5571;48.110;-1.706;2022-09-09T08:19:23;14.23;;;3.30;;
11034;SDS011;5571;48.110;-1.706;2022-09-09T08:21:48;15.30;;;3.08;;
11034;SDS011;5571;48.110;-1.706;2022-09-09T08:24:14;11.15;;;2.92;;
11034;SDS011;5571;48.110;-1.706;2022-09-09T08:26:41;16.57;;;3.57;;
11034;SDS011;5571;48.110;-1.706;2022-09-09T08:29:08;19.80;;;3.87;;
11034;SDS011;5571;48.110;-1.706;2022-09-09T08:31:36;12.77;;;3.28;;
11034;SDS011;5571;48.110;-1.706;2022-09-09T08:34:03;19.88;;;3.88;;
11034;SDS011;5571;48.110;-1.706;2022-09-09T08:36:32;13.75;;;3.42;;
11034;SDS011;5571;48.110;-1.706;2022-09-09T08:38:59;13.60;;;3.08;;
11034;SDS011;5571;48.110;-1.706;2022-09-09T08:47:18;14.73;;;3.00;;
11034;SDS011;5571;48.110;-1.706;2022-09-09T08:58:09;10.10;;;2.75;;
11034;SDS011;5571;48.110;-1.706;2022-09-09T09:03:41;11.27;;;2.90;;
11034;SDS011;5571;48.110;-1.706;2022-09-09T09:11:18;13.57;;;2.85;;
11034;SDS011;5571;48.110;-1.706;2022-09-09T09:18:59;8.25;;;2.15;;
11034;SDS011;5571;48.110;-1.706;2022-09-09T09:24:00;11.00;;;2.58;;
11034;SDS011;5571;48.110;-1.706;2022-09-09T09:26:30;10.85;;;2.55;;
11034;SDS011;5571;48.110;-1.706;2022-09-09T09:28:58;14.10;;;2.97;;
11034;SDS011;5571;48.110;-1.706;2022-09-09T09:31:25;12.80;;;2.83;;
11034;SDS011;5571;48.110;-1.706;2022-09-09T09:33:55;11.00;;;2.60;;
11034;SDS011;5571;48.110;-1.706;2022-09-09T09:36:42;13.35;;;3.22;;
11034;SDS011;5571;48.110;-1.706;2022-09-09T09:39:09;7.70;;;2.50;;
11034;SDS011;5571;48.110;-1.706;2022-09-09T09:41:38;14.50;;;2.63;;
11034;SDS011;5571;48.110;-1.706;2022-09-09T09:44:22;9.20;;;2.45;;
11034;SDS011;5571;48.110;-1.706;2022-09-09T09:46:52;10.40;;;2.33;;
11034;SDS011;5571;48.110;-1.706;2022-09-09T09:49:18;6.05;;;2.10;;
11034;SDS011;5571;48.110;-1.706;2022-09-09T09:51:44;7.45;;;2.47;;
11034;SDS011;5571;48.110;-1.706;2022-09-09T09:56:38;9.50;;;2.35;;
11034;SDS011;5571;48.110;-1.706;2022-09-09T09:59:05;9.65;;;2.08;;
11034;SDS011;5571;48.110;-1.706;2022-09-09T10:01:31;7.10;;;2.03;;
11034;SDS011;5571;48.110;-1.706;2022-09-09T10:03:59;13.70;;;2.60;;
11034;SDS011;5571;48.110;-1.706;2022-09-09T10:06:30;9.20;;;2.25;;
11034;SDS011;5571;48.110;-1.706;2022-09-09T10:08:57;12.50;;;3.05;;
11034;SDS011;5571;48.110;-1.706;2022-09-09T10:11:26;9.65;;;2.50;;
11034;SDS011;5571;48.110;-1.706;2022-09-09T10:14:10;6.45;;;2.30;;
11034;SDS011;5571;48.110;-1.706;2022-09-09T10:16:57;8.70;;;2.78;;
11034;SDS011;5571;48.110;-1.706;2022-09-09T10:19:42;13.15;;;2.95;;
11034;SDS011;5571;48.110;-1.706;2022-09-09T10:25:01;10.23;;;2.40;;
11034;SDS011;5571;48.110;-1.706;2022-09-09T10:27:49;10.93;;;2.50;;
11034;SDS011;5571;48.110;-1.706;2022-09-09T10:33:03;7.82;;;2.55;;
11034;SDS011;5571;48.110;-1.706;2022-09-09T10:40:41;9.93;;;2.72;;
11034;SDS011;5571;48.110;-1.706;2022-09-09T10:55:25;6.13;;;1.92;;
11034;SDS011;5571;48.110;-1.706;2022-09-09T10:57:58;7.70;;;2.47;;
11034;SDS011;5571;48.110;-1.706;2022-09-09T11:00:31;7.70;;;2.55;;
11034;SDS011;5571;48.110;-1.706;2022-09-09T11:03:05;5.97;;;1.83;;
11034;SDS011;5571;48.110;-1.706;2022-09-09T11:05:42;5.00;;;1.65;;
11034;SDS011;5571;48.110;-1.706;2022-09-09T11:08:18;6.57;;;2.33;;
11034;SDS011;5571;48.110;-1.706;2022-09-09T11:16:00;5.05;;;1.70;;
11034;SDS011;5571;48.110;-1.706;2022-09-09T11:18:40;4.32;;;1.88;;
11034;SDS011;5571;48.110;-1.706;2022-09-09T11:21:10;5.95;;;1.67;;
11034;SDS011;5571;48.110;-1.706;2022-09-09T11:23:59;5.75;;;1.98;;
11034;SDS011;5571;48.110;-1.706;2022-09-09T11:26:35;11.85;;;2.42;;
11034;SDS011;5571;48.110;-1.706;2022-09-09T11:29:32;7.50;;;1.90;;
11034;SDS011;5571;48.110;-1.706;2022-09-09T11:37:35;9.45;;;2.25;;
11034;SDS011;5571;48.110;-1.706;2022-09-09T11:40:30;9.18;;;2.30;;
11034;SDS011;5571;48.110;-1.706;2022-09-09T11:43:04;6.53;;;2.42;;
11034;SDS011;5571;48.110;-1.706;2022-09-09T11:45:34;10.10;;;2.20;;
11034;SDS011;5571;48.110;-1.706;2022-09-09T11:48:01;6.60;;;2.10;;
11034;SDS011;5571;48.110;-1.706;2022-09-09T11:50:29;6.25;;;2.03;;
11034;SDS011;5571;48.110;-1.706;2022-09-09T11:55:38;4.93;;;1.40;;
11034;SDS011;5571;48.110;-1.706;2022-09-09T12:00:39;6.07;;;1.65;;
11034;SDS011;5571;48.110;-1.706;2022-09-09T12:06:19;5.70;;;1.60;;
11034;SDS011;5571;48.110;-1.706;2022-09-09T12:08:53;4.78;;;1.70;;
11034;SDS011;5571;48.110;-1.706;2022-09-09T12:11:24;2.85;;;1.02;;
11034;SDS011;5571;48.110;-1.706;2022-09-09T12:13:54;4.20;;;1.80;;
11034;SDS011;5571;48.110;-1.706;2022-09-09T12:16:34;4.88;;;1.50;;
11034;SDS011;5571;48.110;-1.706;2022-09-09T12:19:21;6.18;;;1.83;;
11034;SDS011;5571;48.110;-1.706;2022-09-09T12:24:35;3.85;;;1.40;;
11034;SDS011;5571;48.110;-1.706;2022-09-09T12:27:14;7.30;;;1.60;;
11034;SDS011;5571;48.110;-1.706;2022-09-09T12:29:57;6.35;;;1.70;;
11034;SDS011;5571;48.110;-1.706;2022-09-09T12:32:36;7.20;;;1.80;;
11034;SDS011;5571;48.110;-1.706;2022-09-09T12:35:04;4.43;;;1.90;;
11034;SDS011;5571;48.110;-1.706;2022-09-09T12:37:45;6.65;;;1.70;;
11034;SDS011;5571;48.110;-1.706;2022-09-09T12:40:24;5.18;;;1.65;;
11034;SDS011;5571;48.110;-1.706;2022-09-09T12:42:51;6.95;;;1.73;;
11034;SDS011;5571;48.110;-1.706;2022-09-09T12:47:45;6.15;;;1.92;;
11034;SDS011;5571;48.110;-1.706;2022-09-09T12:50:29;7.07;;;2.10;;
11034;SDS011;5571;48.110;-1.706;2022-09-09T12:52:57;14.10;;;2.40;;
11034;SDS011;5571;48.110;-1.706;2022-09-09T12:55:31;7.50;;;1.92;;
11034;SDS011;5571;48.110;-1.706;2022-09-09T12:57:58;4.40;;;1.25;;
11034;SDS011;5571;48.110;-1.706;2022-09-09T13:00:29;6.78;;;1.77;;
11034;SDS011;5571;48.110;-1.706;2022-09-09T13:02:56;4.85;;;1.73;;
11034;SDS011;5571;48.110;-1.706;2022-09-09T13:05:25;8.23;;;2.05;;
11034;SDS011;5571;48.110;-1.706;2022-09-09T13:08:02;4.22;;;1.88;;
11034;SDS011;5571;48.110;-1.706;2022-09-09T13:10:30;5.78;;;1.67;;
11034;SDS011;5571;48.110;-1.706;2022-09-09T13:13:00;3.65;;;1.70;;
11034;SDS011;5571;48.110;-1.706;2022-09-09T13:15:27;5.35;;;1.70;;
11034;SDS011;5571;48.110;-1.706;2022-09-09T13:17:58;8.32;;;1.77;;
11034;SDS011;5571;48.110;-1.706;2022-09-09T13:20:26;5.55;;;1.63;;
11034;SDS011;5571;48.110;-1.706;2022-09-09T13:22:53;6.18;;;1.77;;
11034;SDS011;5571;48.110;-1.706;2022-09-09T13:25:21;7.13;;;1.80;;
11034;SDS011;5571;48.110;-1.706;2022-09-09T13:27:53;8.02;;;1.75;;
11034;SDS011;5571;48.110;-1.706;2022-09-09T13:30:33;7.00;;;1.50;;
11034;SDS011;5571;48.110;-1.706;2022-09-09T13:38:38;4.70;;;1.95;;
11034;SDS011;5571;48.110;-1.706;2022-09-09T13:41:22;7.75;;;1.75;;
11034;SDS011;5571;48.110;-1.706;2022-09-09T13:43:49;5.88;;;1.85;;
11034;SDS011;5571;48.110;-1.706;2022-09-09T13:51:38;7.05;;;2.10;;
11034;SDS011;5571;48.110;-1.706;2022-09-09T13:54:08;8.25;;;2.30;;
11034;SDS011;5571;48.110;-1.706;2022-09-09T13:56:35;5.18;;;1.77;;
11034;SDS011;5571;48.110;-1.706;2022-09-09T13:59:03;6.35;;;1.98;;
11034;SDS011;5571;48.110;-1.706;2022-09-09T14:01:31;5.05;;;1.63;;
11034;SDS011;5571;48.110;-1.706;2022-09-09T14:03:56;3.20;;;1.23;;
11034;SDS011;5571;48.110;-1.706;2022-09-09T14:06:22;6.70;;;1.73;;
11034;SDS011;5571;48.110;-1.706;2022-09-09T14:08:50;5.78;;;1.80;;
11034;SDS011;5571;48.110;-1.706;2022-09-09T14:11:16;1.67;;;1.10;;
11034;SDS011;5571;48.110;-1.706;2022-09-09T14:13:43;4.40;;;1.48;;
11034;SDS011;5571;48.110;-1.706;2022-09-09T14:16:08;3.60;;;1.17;;
11034;SDS011;5571;48.110;-1.706;2022-09-09T14:18:34;3.13;;;1.52;;
11034;SDS011;5571;48.110;-1.706;2022-09-09T14:21:00;2.35;;;1.20;;
11034;SDS011;5571;48.110;-1.706;2022-09-09T14:23:25;6.32;;;1.63;;
11034;SDS011;5571;48.110;-1.706;2022-09-09T14:25:50;2.92;;;1.20;;
11034;SDS011;5571;48.110;-1.706;2022-09-09T14:28:17;4.50;;;1.40;;
11034;SDS011;5571;48.110;-1.706;2022-09-09T14:30:42;3.17;;;1.50;;
11034;SDS011;5571;48.110;-1.706;2022-09-09T14:33:10;4.50;;;1.35;;
11034;SDS011;5571;48.110;-1.706;2022-09-09T14:35:38;4.13;;;1.58;;
11034;SDS011;5571;48.110;-1.706;2022-09-09T14:38:04;3.85;;;1.30;;
11034;SDS011;5571;48.110;-1.706;2022-09-09T14:40:30;6.05;;;1.58;;
11034;SDS011;5571;48.110;-1.706;2022-09-09T14:42:56;5.95;;;1.67;;
11034;SDS011;5571;48.110;-1.706;2022-09-09T14:45:21;1.85;;;0.93;;
11034;SDS011;5571;48.110;-1.706;2022-09-09T14:47:49;1.77;;;0.90;;
11034;SDS011;5571;48.110;-1.706;2022-09-09T14:50:16;2.75;;;0.95;;
11034;SDS011;5571;48.110;-1.706;2022-09-09T14:52:42;2.67;;;0.95;;
11034;SDS011;5571;48.110;-1.706;2022-09-09T14:55:08;3.75;;;1.20;;
11034;SDS011;5571;48.110;-1.706;2022-09-09T14:57:33;3.47;;;1.23;;
11034;SDS011;5571;48.110;-1.706;2022-09-09T15:00:00;5.10;;;1.50;;
11034;SDS011;5571;48.110;-1.706;2022-09-09T15:02:27;3.38;;;1.50;;
11034;SDS011;5571;48.110;-1.706;2022-09-09T15:04:52;5.15;;;1.42;;
11034;SDS011;5571;48.110;-1.706;2022-09-09T15:07:18;6.65;;;1.55;;
11034;SDS011;5571;48.110;-1.706;2022-09-09T15:09:44;2.25;;;1.17;;
11034;SDS011;5571;48.110;-1.706;2022-09-09T15:12:10;3.88;;;1.55;;
11034;SDS011;5571;48.110;-1.706;2022-09-09T15:14:35;5.03;;;1.10;;
11034;SDS011;5571;48.110;-1.706;2022-09-09T15:17:00;3.80;;;1.40;;
11034;SDS011;5571;48.110;-1.706;2022-09-09T15:19:26;5.25;;;1.27;;
11034;SDS011;5571;48.110;-1.706;2022-09-09T15:21:51;4.55;;;1.63;;
11034;SDS011;5571;48.110;-1.706;2022-09-09T15:24:17;4.15;;;1.50;;
11034;SDS011;5571;48.110;-1.706;2022-09-09T15:26:42;6.53;;;1.70;;
11034;SDS011;5571;48.110;-1.706;2022-09-09T15:29:07;5.53;;;1.80;;
11034;SDS011;5571;48.110;-1.706;2022-09-09T15:31:33;4.88;;;1.75;;
11034;SDS011;5571;48.110;-1.706;2022-09-09T15:34:03;4.90;;;1.58;;
11034;SDS011;5571;48.110;-1.706;2022-09-09T15:36:34;5.93;;;1.40;;
11034;SDS011;5571;48.110;-1.706;2022-09-09T15:39:01;5.13;;;1.77;;
11034;SDS011;5571;48.110;-1.706;2022-09-09T15:41:28;7.63;;;1.50;;
11034;SDS011;5571;48.110;-1.706;2022-09-09T15:43:55;5.50;;;1.90;;
11034;SDS011;5571;48.110;-1.706;2022-09-09T15:48:58;8.18;;;1.98;;
11034;SDS011;5571;48.110;-1.706;2022-09-09T15:51:29;3.28;;;1.33;;
11034;SDS011;5571;48.110;-1.706;2022-09-09T15:53:55;3.45;;;1.38;;
11034;SDS011;5571;48.110;-1.706;2022-09-09T15:56:22;4.93;;;1.92;;
11034;SDS011;5571;48.110;-1.706;2022-09-09T15:58:48;6.82;;;1.70;;
11034;SDS011;5571;48.110;-1.706;2022-09-09T16:01:13;5.45;;;1.50;;
11034;SDS011;5571;48.110;-1.706;2022-09-09T16:03:41;6.40;;;1.63;;
11034;SDS011;5571;48.110;-1.706;2022-09-09T16:06:08;7.18;;;1.40;;
11034;SDS011;5571;48.110;-1.706;2022-09-09T16:08:34;3.60;;;1.05;;
11034;SDS011;5571;48.110;-1.706;2022-09-09T16:11:08;6.40;;;1.40;;
11034;SDS011;5571;48.110;-1.706;2022-09-09T16:13:36;7.85;;;1.92;;
11034;SDS011;5571;48.110;-1.706;2022-09-09T16:16:03;4.40;;;1.40;;
11034;SDS011;5571;48.110;-1.706;2022-09-09T16:18:39;4.10;;;1.60;;
11034;SDS011;5571;48.110;-1.706;2022-09-09T16:21:06;7.15;;;1.65;;
11034;SDS011;5571;48.110;-1.706;2022-09-09T16:23:33;6.07;;;1.77;;
11034;SDS011;5571;48.110;-1.706;2022-09-09T16:25:59;7.13;;;1.60;;
11034;SDS011;5571;48.110;-1.706;2022-09-09T16:28:26;6.05;;;1.60;;
11034;SDS011;5571;48.110;-1.706;2022-09-09T16:30:51;3.72;;;1.40;;
11034;SDS011;5571;48.110;-1.706;2022-09-09T16:33:17;3.03;;;1.80;;
11034;SDS011;5571;48.110;-1.706;2022-09-09T16:35:43;4.00;;;1.75;;
11034;SDS011;5571;48.110;-1.706;2022-09-09T16:38:09;5.60;;;1.90;;
11034;SDS011;5571;48.110;-1.706;2022-09-09T16:40:35;4.43;;;1.52;;
11034;SDS011;5571;48.110;-1.706;2022-09-09T16:43:01;3.83;;;1.80;;
11034;SDS011;5571;48.110;-1.706;2022-09-09T16:45:27;5.53;;;1.70;;
11034;SDS011;5571;48.110;-1.706;2022-09-09T16:47:52;6.88;;;3.10;;
11034;SDS011;5571;48.110;-1.706;2022-09-09T16:50:18;11.68;;;6.53;;
11034;SDS011;5571;48.110;-1.706;2022-09-09T16:52:44;10.73;;;4.72;;
11034;SDS011;5571;48.110;-1.706;2022-09-09T16:55:09;6.10;;;2.25;;
11034;SDS011;5571;48.110;-1.706;2022-09-09T16:57:34;3.88;;;1.70;;
11034;SDS011;5571;48.110;-1.706;2022-09-09T17:00:00;6.60;;;1.88;;
11034;SDS011;5571;48.110;-1.706;2022-09-09T17:02:26;4.32;;;1.45;;
11034;SDS011;5571;48.110;-1.706;2022-09-09T17:04:51;8.73;;;2.03;;